Andrea — WDF2417 — position and weather

sailwx.info

Track history (hours):
 
Tides and Currents Weather Stations Pressure Air Temp Water Temp Dewpoint Dewpoint Depression Visibility Wind Speed Wind Dir Waves Ship Positions

Andrea

Owner: Enterprise Marine Services, LLC, San Antonio, TX. More information available from US FCC via Universal Licensing System and Coast Guard Vessel Documentation Center.

Last reported at 2018-Jan-22 04:00 UTC. Time now 2018-Jan-22 04:02 UTC.
Position N 40°40' W 074°08'.

; draft 4 m.

Type: Towing. MMSI: 367003310.

Date/timePositionNaut miles runAvg speedWind from/ knotsBaromVisibWave heightAir tempDewpointWater temp
2018-Jan-22 04:00N 40°40' W 074°08'0 0.0
2018-Jan-22 03:30N 40°40' W 074°08'0 0.0
2018-Jan-22 03:00N 40°40' W 074°08'0 0.0
2018-Jan-22 02:30N 40°40' W 074°08'0 0.0
2018-Jan-22 02:00N 40°40' W 074°08'0 0.0
2018-Jan-22 01:30N 40°40' W 074°08'0 0.0
2018-Jan-22 01:00N 40°40' W 074°08'0 0.0
2018-Jan-22 00:30N 40°40' W 074°08'2 4.0
2018-Jan-22 00:00N 40°39' W 074°10'1 2.4
2018-Jan-21 23:30N 40°39' W 074°11'3 5.9
2018-Jan-21 23:00N 40°40' W 074°08'0 0.0
2018-Jan-21 22:30N 40°40' W 074°08'0 0.0
2018-Jan-21 22:00N 40°40' W 074°08'0 0.0
2018-Jan-21 21:30N 40°40' W 074°08'0 0.0
2018-Jan-21 21:00N 40°40' W 074°08'0 0.0
2018-Jan-21 20:30N 40°40' W 074°08'0 0.0
2018-Jan-21 20:00N 40°40' W 074°08'1 1.1
2018-Jan-21 19:30N 40°41' W 074°09'1 1.5
2018-Jan-21 19:00N 40°40' W 074°08'2 3.6
2018-Jan-21 18:29N 40°39' W 074°07'1 2.4
2018-Jan-21 18:00N 40°39' W 074°05'0 0.2
2018-Jan-21 17:30N 40°39' W 074°05'0 0.0
2018-Jan-21 17:00N 40°39' W 074°05'0 0.0
2018-Jan-21 16:30N 40°39' W 074°05'3 5.4
2018-Jan-21 16:00N 40°39' W 074°02'1 2.5
2018-Jan-21 15:30N 40°40' W 074°00'0 0.0
2018-Jan-21 15:00N 40°40' W 074°00'0 0.0
2018-Jan-21 14:30N 40°40' W 074°00'0 0.0
2018-Jan-21 14:00N 40°40' W 074°00'0 0.0
2018-Jan-21 13:30N 40°40' W 074°00'0 0.0
2018-Jan-21 13:00N 40°40' W 074°00'0 0.0
2018-Jan-21 12:30N 40°40' W 074°00'0 0.0
2018-Jan-21 12:00N 40°40' W 074°00'0 0.0
2018-Jan-21 11:30N 40°40' W 074°00'0 0.0
2018-Jan-21 10:59N 40°40' W 074°00'0 0.0
2018-Jan-21 10:30N 40°40' W 074°00'0 0.0
2018-Jan-21 10:00N 40°40' W 074°00'1 2.1
2018-Jan-21 09:30N 40°40' W 074°01'4 7.7
2018-Jan-21 09:00N 40°39' W 074°06'1 2.0
2018-Jan-21 08:30N 40°39' W 074°05'0 0.2
2018-Jan-21 08:00N 40°39' W 074°05'1 2.7
2018-Jan-21 07:30N 40°40' W 074°03'1 2.6
2018-Jan-21 07:00N 40°41' W 074°03'0 0.1
2018-Jan-21 06:30N 40°41' W 074°03'0 0.2
2018-Jan-21 06:00N 40°41' W 074°03'0 0.2
2018-Jan-21 05:30N 40°41' W 074°03'0 0.0
2018-Jan-21 05:00N 40°41' W 074°03'0 0.0
2018-Jan-21 04:30N 40°41' W 074°03'3 5.5
2018-Jan-21 04:00N 40°39' W 074°05'1 1.9
2018-Jan-21 03:29N 40°39' W 074°07'0 0.0
2018-Jan-21 03:00N 40°39' W 074°07'1 1.2
2018-Jan-21 02:30N 40°39' W 074°07'0 0.0
2018-Jan-21 02:00N 40°39' W 074°07'0 0.0
2018-Jan-21 01:29N 40°39' W 074°07'0 0.0
2018-Jan-21 00:59N 40°39' W 074°07'0 0.0
2018-Jan-21 00:29N 40°39' W 074°07'0 0.0
2018-Jan-20 23:52N 40°39' W 074°07'0 0.1
2018-Jan-20 23:30N 40°39' W 074°07'0 0.6
2018-Jan-20 23:00N 40°39' W 074°07'1 2.9
2018-Jan-20 22:30N 40°39' W 074°05'0 0.9
2018-Jan-20 22:00N 40°39' W 074°05'1 1.2
2018-Jan-20 21:30N 40°40' W 074°04'3 5.9
2018-Jan-20 21:00N 40°40' W 074°00'0 0.1
2018-Jan-20 20:30N 40°40' W 074°00'2 4.5
2018-Jan-20 20:00N 40°41' W 074°03'1 2.9
2018-Jan-20 19:30N 40°40' W 074°04'4 8.0
2018-Jan-20 19:00N 40°39' W 074°09'2 4.7
2018-Jan-20 18:30N 40°41' W 074°09'0 0.0
2018-Jan-20 18:00N 40°41' W 074°09'0 0.0
2018-Jan-20 17:29N 40°41' W 074°09'0 0.0
2018-Jan-20 16:57N 40°41' W 074°09'0 0.1
2018-Jan-20 16:30N 40°41' W 074°09'0 0.1
2018-Jan-20 16:00N 40°41' W 074°09'0 0.0
2018-Jan-20 15:30N 40°41' W 074°09'0 0.0
2018-Jan-20 14:59N 40°41' W 074°09'0 0.0
2018-Jan-20 14:30N 40°41' W 074°09'0 0.0
2018-Jan-20 14:00N 40°41' W 074°09'0 0.0
2018-Jan-20 13:29N 40°41' W 074°09'0 0.0
2018-Jan-20 13:00N 40°41' W 074°09'0 0.0
2018-Jan-20 12:30N 40°41' W 074°09'0 0.0
2018-Jan-20 12:00N 40°41' W 074°09'0 0.0
2018-Jan-20 11:30N 40°41' W 074°09'1 1.8
2018-Jan-20 11:00N 40°40' W 074°08'1 1.9
2018-Jan-20 10:30N 40°39' W 074°09'2 3.2
2018-Jan-20 10:00N 40°39' W 074°07'0 0.1
2018-Jan-20 09:30N 40°39' W 074°07'1 1.9
2018-Jan-20 09:00N 40°39' W 074°05'2 4.7
2018-Jan-20 08:30N 40°40' W 074°03'0 0.7
2018-Jan-20 08:00N 40°41' W 074°03'0 0.0
2018-Jan-20 07:30N 40°41' W 074°03'0 0.1
2018-Jan-20 07:00N 40°41' W 074°03'0 0.0
2018-Jan-20 06:30N 40°41' W 074°03'0 0.0
2018-Jan-20 06:00N 40°41' W 074°03'0 0.1
2018-Jan-20 05:30N 40°41' W 074°03'0 0.2
2018-Jan-20 05:00N 40°41' W 074°03'0 0.1
2018-Jan-20 04:30N 40°41' W 074°03'0 0.0
2018-Jan-20 04:00N 40°41' W 074°03'0 0.0
2018-Jan-20 03:30N 40°41' W 074°03'0 0.0
2018-Jan-20 03:00N 40°41' W 074°03'0 0.0
2018-Jan-20 02:30N 40°41' W 074°03'2 4.2
2018-Jan-20 02:00N 40°39' W 074°04'3 6.9
2018-Jan-20 01:30N 40°39' W 074°09'1 1.6
2018-Jan-20 00:59N 40°40' W 074°09'0 0.1
2018-Jan-20 00:30N 40°40' W 074°09'1 2.5
2018-Jan-19 23:59N 40°39' W 074°08'1 2.1
2018-Jan-19 23:30N 40°39' W 074°06'0 0.0
2018-Jan-19 23:00N 40°39' W 074°06'1 1.4
2018-Jan-19 22:30N 40°39' W 074°07'0 0.0
2018-Jan-19 22:00N 40°39' W 074°07'0 0.0
2018-Jan-19 21:29N 40°39' W 074°07'1 2.3
2018-Jan-19 20:59N 40°39' W 074°06'3 6.0
2018-Jan-19 20:30N 40°41' W 074°03'1 2.4
2018-Jan-19 20:00N 40°40' W 074°01'1 2.3
2018-Jan-19 19:30N 40°40' W 074°00'0 0.0
2018-Jan-19 19:00N 40°40' W 074°00'0 0.0
2018-Jan-19 18:30N 40°40' W 074°00'0 0.0
2018-Jan-19 18:00N 40°40' W 074°00'0 0.0
2018-Jan-19 17:30N 40°40' W 074°00'0 0.0
2018-Jan-19 17:00N 40°40' W 074°00'0 0.0
2018-Jan-19 16:30N 40°40' W 074°00'0 0.0
2018-Jan-19 16:00N 40°40' W 074°00'0 0.0
2018-Jan-19 15:30N 40°40' W 074°00'0 0.0
2018-Jan-19 15:00N 40°40' W 074°00'0 0.0
2018-Jan-19 14:30N 40°40' W 074°00'0 0.0
2018-Jan-19 14:00N 40°40' W 074°00'0 0.0
2018-Jan-19 13:30N 40°40' W 074°00'0 0.2
2018-Jan-19 13:00N 40°40' W 074°00'3 6.4
2018-Jan-19 12:29N 40°39' W 074°05'0 0.9
2018-Jan-19 12:00N 40°39' W 074°05'2 4.5
2018-Jan-19 11:30N 40°41' W 074°03'0 0.2
2018-Jan-19 11:00N 40°41' W 074°03'3 6.5
2018-Jan-19 10:29N 40°39' W 074°07'1 1.6
2018-Jan-19 10:00N 40°39' W 074°08'3 5.1
2018-Jan-19 09:30N 40°41' W 074°09'1 2.2
2018-Jan-19 08:59N 40°40' W 074°08'3 5.5
2018-Jan-19 08:30N 40°39' W 074°05'0 0.4
2018-Jan-19 08:00N 40°39' W 074°05'0 0.0
2018-Jan-19 07:30N 40°39' W 074°05'0 0.0
2018-Jan-19 07:00N 40°39' W 074°05'0 0.0
2018-Jan-19 06:30N 40°39' W 074°05'0 0.0
2018-Jan-19 06:00N 40°39' W 074°05'0 0.5
2018-Jan-19 05:30N 40°39' W 074°05'4 7.2
2018-Jan-19 05:00N 40°42' W 074°02'4 7.9
2018-Jan-19 04:30N 40°46' W 074°01'1 1.8
2018-Jan-19 04:00N 40°46' W 073°60'0 0.0
2018-Jan-19 03:30N 40°46' W 073°60'0 0.0
2018-Jan-19 03:00N 40°46' W 073°60'0 0.0
2018-Jan-19 02:30N 40°46' W 073°60'2 3.5
2018-Jan-19 02:00N 40°45' W 074°01'5 9.8
2018-Jan-19 01:30N 40°40' W 074°03'5 9.1
2018-Jan-19 01:00N 40°39' W 074°08'2 3.9
2018-Jan-19 00:30N 40°40' W 074°08'0 0.0
2018-Jan-19 00:00N 40°40' W 074°08'0 0.0
2018-Jan-18 23:30N 40°40' W 074°08'0 0.0
2018-Jan-18 23:00N 40°40' W 074°08'0 0.0
2018-Jan-18 22:30N 40°40' W 074°08'0 0.0
2018-Jan-18 21:59N 40°40' W 074°08'1 1.2
2018-Jan-18 21:30N 40°41' W 074°09'0 0.1
2018-Jan-18 21:00N 40°41' W 074°09'1 1.1
2018-Jan-18 20:30N 40°41' W 074°08'2 4.1
2018-Jan-18 20:00N 40°39' W 074°07'1 1.4
2018-Jan-18 19:30N 40°39' W 074°07'1 1.2
2018-Jan-18 18:59N 40°39' W 074°07'0 0.0
2018-Jan-18 18:30N 40°39' W 074°07'0 0.0
2018-Jan-18 18:00N 40°39' W 074°07'0 0.0
2018-Jan-18 17:30N 40°39' W 074°07'0 0.0
2018-Jan-18 17:00N 40°39' W 074°07'0 0.0
2018-Jan-18 16:30N 40°39' W 074°07'0 0.0
2018-Jan-18 16:00N 40°39' W 074°07'2 3.6
2018-Jan-18 15:30N 40°40' W 074°09'0 0.0
2018-Jan-18 15:00N 40°40' W 074°09'1 2.8
2018-Jan-18 14:30N 40°39' W 074°09'2 4.8
2018-Jan-18 14:00N 40°39' W 074°05'2 5.0
2018-Jan-18 13:30N 40°40' W 074°03'1 1.2
2018-Jan-18 13:00N 40°41' W 074°03'1 2.1
2018-Jan-18 12:30N 40°40' W 074°03'3 6.7
2018-Jan-18 12:00N 40°39' W 074°07'2 3.0
2018-Jan-18 11:27N 40°40' W 074°08'2 3.6
2018-Jan-18 11:00N 40°39' W 074°09'3 5.0
2018-Jan-18 10:30N 40°39' W 074°05'2 4.0
2018-Jan-18 10:00N 40°39' W 074°03'0 0.2
2018-Jan-18 09:30N 40°39' W 074°03'0 0.0
2018-Jan-18 09:00N 40°39' W 074°03'3 5.2
2018-Jan-18 08:27N 40°39' W 074°06'0 0.1
2018-Jan-18 07:55N 40°39' W 074°06'3 7.0
2018-Jan-18 07:30N 40°40' W 074°03'1 1.6
2018-Jan-18 07:00N 40°41' W 074°03'2 4.1
2018-Jan-18 06:30N 40°39' W 074°05'3 6.0
2018-Jan-18 05:58N 40°39' W 074°09'0 0.7
2018-Jan-18 05:30N 40°40' W 074°09'0 0.0
2018-Jan-18 05:00N 40°40' W 074°09'0 0.0
2018-Jan-18 04:30N 40°40' W 074°09'2 4.7
2018-Jan-18 04:00N 40°39' W 074°06'3 6.1
2018-Jan-18 03:30N 40°41' W 074°03'0 0.0
2018-Jan-18 03:00N 40°41' W 074°03'0 0.0
2018-Jan-18 02:30N 40°41' W 074°03'0 0.0
2018-Jan-18 02:00N 40°41' W 074°03'4 7.0
2018-Jan-18 01:30N 40°39' W 074°07'4 6.8
2018-Jan-18 00:59N 40°39' W 074°11'0 0.0
2018-Jan-18 00:00N 40°39' W 074°11'0 0.0
2018-Jan-17 23:56N 40°39' W 074°11'  
2018-Jan-12 15:00N 40°41' W 074°03'0 0.1
2018-Jan-12 14:30N 40°41' W 074°03'0 0.1
2018-Jan-12 14:00N 40°41' W 074°03'0 0.0
2018-Jan-12 13:30N 40°41' W 074°03'0 0.0
2018-Jan-12 13:00N 40°41' W 074°03'0 0.0
2018-Jan-12 12:30N 40°41' W 074°03'0 0.0
2018-Jan-12 12:00N 40°41' W 074°03'0 0.1
2018-Jan-12 11:30N 40°41' W 074°03'0 0.1
2018-Jan-12 11:00N 40°41' W 074°03'0 0.0
2018-Jan-12 10:30N 40°41' W 074°03'0 0.0
2018-Jan-12 09:59N 40°41' W 074°03'0 0.0
2018-Jan-12 09:30N 40°41' W 074°03'0 0.0
2018-Jan-12 09:00N 40°41' W 074°03'0 0.1
2018-Jan-12 08:30N 40°41' W 074°03'1 2.6
2018-Jan-12 08:00N 40°40' W 074°01'1 2.1
2018-Jan-12 07:30N 40°40' W 074°00'0 0.0
2018-Jan-12 07:00N 40°40' W 074°00'0 0.0
2018-Jan-12 06:30N 40°40' W 074°00'0 0.0
2018-Jan-12 06:00N 40°40' W 074°00'0 0.0
2018-Jan-12 05:30N 40°40' W 074°00'0 0.0
2018-Jan-12 05:00N 40°40' W 074°00'0 0.0
2018-Jan-12 04:30N 40°40' W 074°00'0 0.0
2018-Jan-12 04:00N 40°40' W 074°00'  
Track history (hours):
 
Tides and Currents Weather Stations Pressure Air Temp Water Temp Dewpoint Dewpoint Depression Visibility Wind Speed Wind Dir Waves Ship Positions

Andrea

Owner: Enterprise Marine Services, LLC, San Antonio, TX. More information available from US FCC via Universal Licensing System and Coast Guard Vessel Documentation Center.

Last reported at 2018-Jan-22 04:00 UTC. Time now 2018-Jan-22 04:02 UTC.
Position N 40°40' W 074°08'.

; draft 4 m.

Type: Towing. MMSI: 367003310.

Date/timePositionNaut miles runAvg speedWind from/ knotsBaromVisibWave heightAir tempDewpointWater temp
2018-Jan-22 04:00N 40°40' W 074°08'0 0.0
2018-Jan-22 03:30N 40°40' W 074°08'0 0.0
2018-Jan-22 03:00N 40°40' W 074°08'0 0.0
2018-Jan-22 02:30N 40°40' W 074°08'0 0.0
2018-Jan-22 02:00N 40°40' W 074°08'0 0.0
2018-Jan-22 01:30N 40°40' W 074°08'0 0.0
2018-Jan-22 01:00N 40°40' W 074°08'0 0.0
2018-Jan-22 00:30N 40°40' W 074°08'2 4.0
2018-Jan-22 00:00N 40°39' W 074°10'1 2.4
2018-Jan-21 23:30N 40°39' W 074°11'3 5.9
2018-Jan-21 23:00N 40°40' W 074°08'0 0.0
2018-Jan-21 22:30N 40°40' W 074°08'0 0.0
2018-Jan-21 22:00N 40°40' W 074°08'0 0.0
2018-Jan-21 21:30N 40°40' W 074°08'0 0.0
2018-Jan-21 21:00N 40°40' W 074°08'0 0.0
2018-Jan-21 20:30N 40°40' W 074°08'0 0.0
2018-Jan-21 20:00N 40°40' W 074°08'1 1.1
2018-Jan-21 19:30N 40°41' W 074°09'1 1.5
2018-Jan-21 19:00N 40°40' W 074°08'2 3.6
2018-Jan-21 18:29N 40°39' W 074°07'1 2.4
2018-Jan-21 18:00N 40°39' W 074°05'0 0.2
2018-Jan-21 17:30N 40°39' W 074°05'0 0.0
2018-Jan-21 17:00N 40°39' W 074°05'0 0.0
2018-Jan-21 16:30N 40°39' W 074°05'3 5.4
2018-Jan-21 16:00N 40°39' W 074°02'1 2.5
2018-Jan-21 15:30N 40°40' W 074°00'0 0.0
2018-Jan-21 15:00N 40°40' W 074°00'0 0.0
2018-Jan-21 14:30N 40°40' W 074°00'0 0.0
2018-Jan-21 14:00N 40°40' W 074°00'0 0.0
2018-Jan-21 13:30N 40°40' W 074°00'0 0.0
2018-Jan-21 13:00N 40°40' W 074°00'0 0.0
2018-Jan-21 12:30N 40°40' W 074°00'0 0.0
2018-Jan-21 12:00N 40°40' W 074°00'0 0.0
2018-Jan-21 11:30N 40°40' W 074°00'0 0.0
2018-Jan-21 10:59N 40°40' W 074°00'0 0.0
2018-Jan-21 10:30N 40°40' W 074°00'0 0.0
2018-Jan-21 10:00N 40°40' W 074°00'1 2.1
2018-Jan-21 09:30N 40°40' W 074°01'4 7.7
2018-Jan-21 09:00N 40°39' W 074°06'1 2.0
2018-Jan-21 08:30N 40°39' W 074°05'0 0.2
2018-Jan-21 08:00N 40°39' W 074°05'1 2.7
2018-Jan-21 07:30N 40°40' W 074°03'1 2.6
2018-Jan-21 07:00N 40°41' W 074°03'0 0.1
2018-Jan-21 06:30N 40°41' W 074°03'0 0.2
2018-Jan-21 06:00N 40°41' W 074°03'0 0.2
2018-Jan-21 05:30N 40°41' W 074°03'0 0.0
2018-Jan-21 05:00N 40°41' W 074°03'0 0.0
2018-Jan-21 04:30N 40°41' W 074°03'3 5.5
2018-Jan-21 04:00N 40°39' W 074°05'1 1.9
2018-Jan-21 03:29N 40°39' W 074°07'0 0.0
2018-Jan-21 03:00N 40°39' W 074°07'1 1.2
2018-Jan-21 02:30N 40°39' W 074°07'0 0.0
2018-Jan-21 02:00N 40°39' W 074°07'0 0.0
2018-Jan-21 01:29N 40°39' W 074°07'0 0.0
2018-Jan-21 00:59N 40°39' W 074°07'0 0.0
2018-Jan-21 00:29N 40°39' W 074°07'0 0.0
2018-Jan-20 23:52N 40°39' W 074°07'0 0.1
2018-Jan-20 23:30N 40°39' W 074°07'0 0.6
2018-Jan-20 23:00N 40°39' W 074°07'1 2.9
2018-Jan-20 22:30N 40°39' W 074°05'0 0.9
2018-Jan-20 22:00N 40°39' W 074°05'1 1.2
2018-Jan-20 21:30N 40°40' W 074°04'3 5.9
2018-Jan-20 21:00N 40°40' W 074°00'0 0.1
2018-Jan-20 20:30N 40°40' W 074°00'2 4.5
2018-Jan-20 20:00N 40°41' W 074°03'1 2.9
2018-Jan-20 19:30N 40°40' W 074°04'4 8.0
2018-Jan-20 19:00N 40°39' W 074°09'2 4.7
2018-Jan-20 18:30N 40°41' W 074°09'0 0.0
2018-Jan-20 18:00N 40°41' W 074°09'0 0.0
2018-Jan-20 17:29N 40°41' W 074°09'0 0.0
2018-Jan-20 16:57N 40°41' W 074°09'0 0.1
2018-Jan-20 16:30N 40°41' W 074°09'0 0.1
2018-Jan-20 16:00N 40°41' W 074°09'0 0.0
2018-Jan-20 15:30N 40°41' W 074°09'0 0.0
2018-Jan-20 14:59N 40°41' W 074°09'0 0.0
2018-Jan-20 14:30N 40°41' W 074°09'0 0.0
2018-Jan-20 14:00N 40°41' W 074°09'0 0.0
2018-Jan-20 13:29N 40°41' W 074°09'0 0.0
2018-Jan-20 13:00N 40°41' W 074°09'0 0.0
2018-Jan-20 12:30N 40°41' W 074°09'0 0.0
2018-Jan-20 12:00N 40°41' W 074°09'0 0.0
2018-Jan-20 11:30N 40°41' W 074°09'1 1.8
2018-Jan-20 11:00N 40°40' W 074°08'1 1.9
2018-Jan-20 10:30N 40°39' W 074°09'2 3.2
2018-Jan-20 10:00N 40°39' W 074°07'0 0.1
2018-Jan-20 09:30N 40°39' W 074°07'1 1.9
2018-Jan-20 09:00N 40°39' W 074°05'2 4.7
2018-Jan-20 08:30N 40°40' W 074°03'0 0.7
2018-Jan-20 08:00N 40°41' W 074°03'0 0.0
2018-Jan-20 07:30N 40°41' W 074°03'0 0.1
2018-Jan-20 07:00N 40°41' W 074°03'0 0.0
2018-Jan-20 06:30N 40°41' W 074°03'0 0.0
2018-Jan-20 06:00N 40°41' W 074°03'0 0.1
2018-Jan-20 05:30N 40°41' W 074°03'0 0.2
2018-Jan-20 05:00N 40°41' W 074°03'0 0.1
2018-Jan-20 04:30N 40°41' W 074°03'0 0.0
2018-Jan-20 04:00N 40°41' W 074°03'0 0.0
2018-Jan-20 03:30N 40°41' W 074°03'0 0.0
2018-Jan-20 03:00N 40°41' W 074°03'0 0.0
2018-Jan-20 02:30N 40°41' W 074°03'2 4.2
2018-Jan-20 02:00N 40°39' W 074°04'3 6.9
2018-Jan-20 01:30N 40°39' W 074°09'1 1.6
2018-Jan-20 00:59N 40°40' W 074°09'0 0.1
2018-Jan-20 00:30N 40°40' W 074°09'1 2.5
2018-Jan-19 23:59N 40°39' W 074°08'1 2.1
2018-Jan-19 23:30N 40°39' W 074°06'0 0.0
2018-Jan-19 23:00N 40°39' W 074°06'1 1.4
2018-Jan-19 22:30N 40°39' W 074°07'0 0.0
2018-Jan-19 22:00N 40°39' W 074°07'0 0.0
2018-Jan-19 21:29N 40°39' W 074°07'1 2.3
2018-Jan-19 20:59N 40°39' W 074°06'3 6.0
2018-Jan-19 20:30N 40°41' W 074°03'1 2.4
2018-Jan-19 20:00N 40°40' W 074°01'1 2.3
2018-Jan-19 19:30N 40°40' W 074°00'0 0.0
2018-Jan-19 19:00N 40°40' W 074°00'0 0.0
2018-Jan-19 18:30N 40°40' W 074°00'0 0.0
2018-Jan-19 18:00N 40°40' W 074°00'0 0.0
2018-Jan-19 17:30N 40°40' W 074°00'0 0.0
2018-Jan-19 17:00N 40°40' W 074°00'0 0.0
2018-Jan-19 16:30N 40°40' W 074°00'0 0.0
2018-Jan-19 16:00N 40°40' W 074°00'0 0.0
2018-Jan-19 15:30N 40°40' W 074°00'0 0.0
2018-Jan-19 15:00N 40°40' W 074°00'0 0.0
2018-Jan-19 14:30N 40°40' W 074°00'0 0.0
2018-Jan-19 14:00N 40°40' W 074°00'0 0.0
2018-Jan-19 13:30N 40°40' W 074°00'0 0.2
2018-Jan-19 13:00N 40°40' W 074°00'3 6.4
2018-Jan-19 12:29N 40°39' W 074°05'0 0.9
2018-Jan-19 12:00N 40°39' W 074°05'2 4.5
2018-Jan-19 11:30N 40°41' W 074°03'0 0.2
2018-Jan-19 11:00N 40°41' W 074°03'3 6.5
2018-Jan-19 10:29N 40°39' W 074°07'1 1.6
2018-Jan-19 10:00N 40°39' W 074°08'3 5.1
2018-Jan-19 09:30N 40°41' W 074°09'1 2.2
2018-Jan-19 08:59N 40°40' W 074°08'3 5.5
2018-Jan-19 08:30N 40°39' W 074°05'0 0.4
2018-Jan-19 08:00N 40°39' W 074°05'0 0.0
2018-Jan-19 07:30N 40°39' W 074°05'0 0.0
2018-Jan-19 07:00N 40°39' W 074°05'0 0.0
2018-Jan-19 06:30N 40°39' W 074°05'0 0.0
2018-Jan-19 06:00N 40°39' W 074°05'0 0.5
2018-Jan-19 05:30N 40°39' W 074°05'4 7.2
2018-Jan-19 05:00N 40°42' W 074°02'4 7.9
2018-Jan-19 04:30N 40°46' W 074°01'1 1.8
2018-Jan-19 04:00N 40°46' W 073°60'0 0.0
2018-Jan-19 03:30N 40°46' W 073°60'0 0.0
2018-Jan-19 03:00N 40°46' W 073°60'0 0.0
2018-Jan-19 02:30N 40°46' W 073°60'2 3.5
2018-Jan-19 02:00N 40°45' W 074°01'5 9.8
2018-Jan-19 01:30N 40°40' W 074°03'5 9.1
2018-Jan-19 01:00N 40°39' W 074°08'2 3.9
2018-Jan-19 00:30N 40°40' W 074°08'0 0.0
2018-Jan-19 00:00N 40°40' W 074°08'0 0.0
2018-Jan-18 23:30N 40°40' W 074°08'0 0.0
2018-Jan-18 23:00N 40°40' W 074°08'0 0.0
2018-Jan-18 22:30N 40°40' W 074°08'0 0.0
2018-Jan-18 21:59N 40°40' W 074°08'1 1.2
2018-Jan-18 21:30N 40°41' W 074°09'0 0.1
2018-Jan-18 21:00N 40°41' W 074°09'1 1.1
2018-Jan-18 20:30N 40°41' W 074°08'2 4.1
2018-Jan-18 20:00N 40°39' W 074°07'1 1.4
2018-Jan-18 19:30N 40°39' W 074°07'1 1.2
2018-Jan-18 18:59N 40°39' W 074°07'0 0.0
2018-Jan-18 18:30N 40°39' W 074°07'0 0.0
2018-Jan-18 18:00N 40°39' W 074°07'0 0.0
2018-Jan-18 17:30N 40°39' W 074°07'0 0.0
2018-Jan-18 17:00N 40°39' W 074°07'0 0.0
2018-Jan-18 16:30N 40°39' W 074°07'0 0.0
2018-Jan-18 16:00N 40°39' W 074°07'2 3.6
2018-Jan-18 15:30N 40°40' W 074°09'0 0.0
2018-Jan-18 15:00N 40°40' W 074°09'1 2.8
2018-Jan-18 14:30N 40°39' W 074°09'2 4.8
2018-Jan-18 14:00N 40°39' W 074°05'2 5.0
2018-Jan-18 13:30N 40°40' W 074°03'1 1.2
2018-Jan-18 13:00N 40°41' W 074°03'1 2.1
2018-Jan-18 12:30N 40°40' W 074°03'3 6.7
2018-Jan-18 12:00N 40°39' W 074°07'2 3.0
2018-Jan-18 11:27N 40°40' W 074°08'2 3.6
2018-Jan-18 11:00N 40°39' W 074°09'3 5.0
2018-Jan-18 10:30N 40°39' W 074°05'2 4.0
2018-Jan-18 10:00N 40°39' W 074°03'0 0.2
2018-Jan-18 09:30N 40°39' W 074°03'0 0.0
2018-Jan-18 09:00N 40°39' W 074°03'3 5.2
2018-Jan-18 08:27N 40°39' W 074°06'0 0.1
2018-Jan-18 07:55N 40°39' W 074°06'3 7.0
2018-Jan-18 07:30N 40°40' W 074°03'1 1.6
2018-Jan-18 07:00N 40°41' W 074°03'2 4.1
2018-Jan-18 06:30N 40°39' W 074°05'3 6.0
2018-Jan-18 05:58N 40°39' W 074°09'0 0.7
2018-Jan-18 05:30N 40°40' W 074°09'0 0.0
2018-Jan-18 05:00N 40°40' W 074°09'0 0.0
2018-Jan-18 04:30N 40°40' W 074°09'2 4.7
2018-Jan-18 04:00N 40°39' W 074°06'3 6.1
2018-Jan-18 03:30N 40°41' W 074°03'0 0.0
2018-Jan-18 03:00N 40°41' W 074°03'0 0.0
2018-Jan-18 02:30N 40°41' W 074°03'0 0.0
2018-Jan-18 02:00N 40°41' W 074°03'4 7.0
2018-Jan-18 01:30N 40°39' W 074°07'4 6.8
2018-Jan-18 00:59N 40°39' W 074°11'0 0.0
2018-Jan-18 00:00N 40°39' W 074°11'0 0.0
2018-Jan-17 23:56N 40°39' W 074°11'  
2018-Jan-12 15:00N 40°41' W 074°03'0 0.1
2018-Jan-12 14:30N 40°41' W 074°03'0 0.1
2018-Jan-12 14:00N 40°41' W 074°03'0 0.0
2018-Jan-12 13:30N 40°41' W 074°03'0 0.0
2018-Jan-12 13:00N 40°41' W 074°03'0 0.0
2018-Jan-12 12:30N 40°41' W 074°03'0 0.0
2018-Jan-12 12:00N 40°41' W 074°03'0 0.1
2018-Jan-12 11:30N 40°41' W 074°03'0 0.1
2018-Jan-12 11:00N 40°41' W 074°03'0 0.0
2018-Jan-12 10:30N 40°41' W 074°03'0 0.0
2018-Jan-12 09:59N 40°41' W 074°03'0 0.0
2018-Jan-12 09:30N 40°41' W 074°03'0 0.0
2018-Jan-12 09:00N 40°41' W 074°03'0 0.1
2018-Jan-12 08:30N 40°41' W 074°03'1 2.6
2018-Jan-12 08:00N 40°40' W 074°01'1 2.1
2018-Jan-12 07:30N 40°40' W 074°00'0 0.0
2018-Jan-12 07:00N 40°40' W 074°00'0 0.0
2018-Jan-12 06:30N 40°40' W 074°00'0 0.0
2018-Jan-12 06:00N 40°40' W 074°00'0 0.0
2018-Jan-12 05:30N 40°40' W 074°00'0 0.0
2018-Jan-12 05:00N 40°40' W 074°00'0 0.0
2018-Jan-12 04:30N 40°40' W 074°00'0 0.0
2018-Jan-12 04:00N 40°40' W 074°00'  

Dump ship's entire track history